sensor_id;sensor_type;location;lat;lon;timestamp;P1;durP1;ratioP1;P2;durP2;ratioP2
50773;SDS011;36745;48.544;8.918;2022-12-22T00:02:19;11.02;;;7.10;;
50773;SDS011;36745;48.544;8.918;2022-12-22T00:05:58;20.45;;;9.77;;
50773;SDS011;36745;48.544;8.918;2022-12-22T00:09:36;26.75;;;14.90;;
50773;SDS011;36745;48.544;8.918;2022-12-22T00:13:15;38.15;;;19.00;;
50773;SDS011;36745;48.544;8.918;2022-12-22T00:17:01;57.25;;;25.83;;
50773;SDS011;36745;48.544;8.918;2022-12-22T00:20:39;37.55;;;20.40;;
50773;SDS011;36745;48.544;8.918;2022-12-22T00:24:17;14.70;;;9.43;;
50773;SDS011;36745;48.544;8.918;2022-12-22T00:27:56;14.35;;;8.90;;
50773;SDS011;36745;48.544;8.918;2022-12-22T00:31:34;12.82;;;8.30;;
50773;SDS011;36745;48.544;8.918;2022-12-22T00:35:12;15.57;;;9.27;;
50773;SDS011;36745;48.544;8.918;2022-12-22T00:38:52;13.45;;;8.95;;
50773;SDS011;36745;48.544;8.918;2022-12-22T00:42:30;11.13;;;8.85;;
50773;SDS011;36745;48.544;8.918;2022-12-22T00:46:08;11.98;;;8.65;;
50773;SDS011;36745;48.544;8.918;2022-12-22T00:49:48;13.00;;;8.68;;
50773;SDS011;36745;48.544;8.918;2022-12-22T00:53:27;13.55;;;8.65;;
50773;SDS011;36745;48.544;8.918;2022-12-22T00:57:08;15.13;;;8.85;;
50773;SDS011;36745;48.544;8.918;2022-12-22T01:00:58;11.13;;;8.38;;
50773;SDS011;36745;48.544;8.918;2022-12-22T01:04:36;10.68;;;7.40;;
50773;SDS011;36745;48.544;8.918;2022-12-22T01:08:14;11.20;;;7.65;;
50773;SDS011;36745;48.544;8.918;2022-12-22T01:11:53;11.05;;;7.65;;
50773;SDS011;36745;48.544;8.918;2022-12-22T01:15:31;10.45;;;7.75;;
50773;SDS011;36745;48.544;8.918;2022-12-22T01:19:10;11.40;;;8.45;;
50773;SDS011;36745;48.544;8.918;2022-12-22T01:22:48;10.55;;;7.80;;
50773;SDS011;36745;48.544;8.918;2022-12-22T01:26:26;11.50;;;7.45;;
50773;SDS011;36745;48.544;8.918;2022-12-22T01:30:05;11.60;;;7.40;;
50773;SDS011;36745;48.544;8.918;2022-12-22T01:33:44;10.85;;;7.00;;
50773;SDS011;36745;48.544;8.918;2022-12-22T01:37:22;13.52;;;8.27;;
50773;SDS011;36745;48.544;8.918;2022-12-22T01:41:02;12.95;;;7.70;;
50773;SDS011;36745;48.544;8.918;2022-12-22T01:44:47;13.25;;;7.75;;
50773;SDS011;36745;48.544;8.918;2022-12-22T01:48:27;9.30;;;6.15;;
50773;SDS011;36745;48.544;8.918;2022-12-22T01:52:07;9.48;;;6.30;;
50773;SDS011;36745;48.544;8.918;2022-12-22T01:55:48;10.32;;;5.97;;
50773;SDS011;36745;48.544;8.918;2022-12-22T01:59:26;9.63;;;6.63;;
50773;SDS011;36745;48.544;8.918;2022-12-22T02:03:18;6.50;;;5.65;;
50773;SDS011;36745;48.544;8.918;2022-12-22T02:07:00;8.23;;;5.15;;
50773;SDS011;36745;48.544;8.918;2022-12-22T02:10:50;11.13;;;6.30;;
50773;SDS011;36745;48.544;8.918;2022-12-22T02:14:43;10.13;;;5.20;;
50773;SDS011;36745;48.544;8.918;2022-12-22T02:22:45;9.55;;;3.70;;
50773;SDS011;36745;48.544;8.918;2022-12-22T02:26:49;5.78;;;3.30;;
50773;SDS011;36745;48.544;8.918;2022-12-22T02:30:31;3.83;;;3.35;;
50773;SDS011;36745;48.544;8.918;2022-12-22T02:34:13;4.13;;;3.38;;
50773;SDS011;36745;48.544;8.918;2022-12-22T02:38:06;3.70;;;3.10;;
50773;SDS011;36745;48.544;8.918;2022-12-22T02:49:56;6.30;;;2.83;;
50773;SDS011;36745;48.544;8.918;2022-12-22T02:53:39;3.13;;;2.10;;
50773;SDS011;36745;48.544;8.918;2022-12-22T02:57:18;5.20;;;2.38;;
50773;SDS011;36745;48.544;8.918;2022-12-22T03:00:58;3.30;;;2.35;;
50773;SDS011;36745;48.544;8.918;2022-12-22T03:04:39;3.30;;;2.05;;
50773;SDS011;36745;48.544;8.918;2022-12-22T03:08:17;2.17;;;1.98;;
50773;SDS011;36745;48.544;8.918;2022-12-22T03:11:56;3.15;;;1.88;;
50773;SDS011;36745;48.544;8.918;2022-12-22T03:15:34;3.33;;;2.00;;
50773;SDS011;36745;48.544;8.918;2022-12-22T03:19:12;4.05;;;2.45;;
50773;SDS011;36745;48.544;8.918;2022-12-22T03:22:51;2.47;;;2.25;;
50773;SDS011;36745;48.544;8.918;2022-12-22T03:26:29;3.47;;;1.98;;
50773;SDS011;36745;48.544;8.918;2022-12-22T03:29:49;2.15;;;1.90;;
50773;SDS011;36745;48.544;8.918;2022-12-22T03:33:08;7.13;;;2.30;;
50773;SDS011;36745;48.544;8.918;2022-12-22T03:36:28;4.25;;;1.85;;
50773;SDS011;36745;48.544;8.918;2022-12-22T03:39:48;2.03;;;1.33;;
50773;SDS011;36745;48.544;8.918;2022-12-22T03:43:12;3.45;;;1.60;;
50773;SDS011;36745;48.544;8.918;2022-12-22T03:46:51;2.33;;;1.55;;
50773;SDS011;36745;48.544;8.918;2022-12-22T03:50:11;1.30;;;1.20;;
50773;SDS011;36745;48.544;8.918;2022-12-22T03:53:31;1.90;;;1.27;;
50773;SDS011;36745;48.544;8.918;2022-12-22T03:56:51;2.08;;;1.67;;
50773;SDS011;36745;48.544;8.918;2022-12-22T04:00:11;1.65;;;1.17;;
50773;SDS011;36745;48.544;8.918;2022-12-22T04:07:20;2.75;;;1.52;;
50773;SDS011;36745;48.544;8.918;2022-12-22T04:10:40;1.42;;;1.23;;
50773;SDS011;36745;48.544;8.918;2022-12-22T04:14:19;3.63;;;1.27;;
50773;SDS011;36745;48.544;8.918;2022-12-22T04:17:39;1.50;;;1.40;;
50773;SDS011;36745;48.544;8.918;2022-12-22T04:20:59;2.80;;;1.10;;
50773;SDS011;36745;48.544;8.918;2022-12-22T04:24:19;4.97;;;2.10;;
50773;SDS011;36745;48.544;8.918;2022-12-22T04:27:39;3.10;;;1.25;;
50773;SDS011;36745;48.544;8.918;2022-12-22T04:30:59;4.03;;;1.30;;
50773;SDS011;36745;48.544;8.918;2022-12-22T04:34:19;1.15;;;1.00;;
50773;SDS011;36745;48.544;8.918;2022-12-22T04:37:39;4.65;;;1.00;;
50773;SDS011;36745;48.544;8.918;2022-12-22T04:40:59;4.80;;;1.10;;
50773;SDS011;36745;48.544;8.918;2022-12-22T04:44:19;8.02;;;3.50;;
50773;SDS011;36745;48.544;8.918;2022-12-22T04:47:39;6.38;;;1.45;;
50773;SDS011;36745;48.544;8.918;2022-12-22T04:50:59;5.32;;;1.63;;
50773;SDS011;36745;48.544;8.918;2022-12-22T04:54:20;3.60;;;1.88;;
50773;SDS011;36745;48.544;8.918;2022-12-22T04:57:40;5.30;;;1.48;;
50773;SDS011;36745;48.544;8.918;2022-12-22T05:01:07;2.60;;;1.40;;
50773;SDS011;36745;48.544;8.918;2022-12-22T05:04:28;4.40;;;1.27;;
50773;SDS011;36745;48.544;8.918;2022-12-22T05:07:47;3.83;;;1.20;;
50773;SDS011;36745;48.544;8.918;2022-12-22T05:11:07;4.45;;;1.42;;
50773;SDS011;36745;48.544;8.918;2022-12-22T05:14:27;3.50;;;1.23;;
50773;SDS011;36745;48.544;8.918;2022-12-22T05:17:47;5.40;;;1.58;;
50773;SDS011;36745;48.544;8.918;2022-12-22T05:21:12;5.47;;;1.75;;
50773;SDS011;36745;48.544;8.918;2022-12-22T05:24:33;7.00;;;1.70;;
50773;SDS011;36745;48.544;8.918;2022-12-22T05:27:53;6.32;;;2.33;;
50773;SDS011;36745;48.544;8.918;2022-12-22T05:31:14;7.85;;;3.05;;
50773;SDS011;36745;48.544;8.918;2022-12-22T05:34:35;8.63;;;2.47;;
50773;SDS011;36745;48.544;8.918;2022-12-22T05:37:55;7.32;;;2.63;;
50773;SDS011;36745;48.544;8.918;2022-12-22T05:41:15;5.60;;;1.65;;
50773;SDS011;36745;48.544;8.918;2022-12-22T05:44:35;7.97;;;2.13;;
50773;SDS011;36745;48.544;8.918;2022-12-22T05:47:54;17.33;;;3.38;;
50773;SDS011;36745;48.544;8.918;2022-12-22T05:51:14;6.70;;;1.60;;
50773;SDS011;36745;48.544;8.918;2022-12-22T05:54:34;13.10;;;2.10;;
50773;SDS011;36745;48.544;8.918;2022-12-22T05:57:54;8.85;;;1.95;;
50773;SDS011;36745;48.544;8.918;2022-12-22T06:01:14;8.77;;;2.33;;
50773;SDS011;36745;48.544;8.918;2022-12-22T06:04:33;16.23;;;2.60;;
50773;SDS011;36745;48.544;8.918;2022-12-22T06:07:53;15.20;;;2.42;;
50773;SDS011;36745;48.544;8.918;2022-12-22T06:11:13;9.10;;;2.13;;
50773;SDS011;36745;48.544;8.918;2022-12-22T06:14:36;8.57;;;2.00;;
50773;SDS011;36745;48.544;8.918;2022-12-22T06:17:56;9.60;;;2.28;;
50773;SDS011;36745;48.544;8.918;2022-12-22T06:21:16;8.73;;;1.80;;
50773;SDS011;36745;48.544;8.918;2022-12-22T06:24:35;12.15;;;2.05;;
50773;SDS011;36745;48.544;8.918;2022-12-22T06:27:55;9.00;;;2.10;;
50773;SDS011;36745;48.544;8.918;2022-12-22T06:31:15;13.80;;;2.22;;
50773;SDS011;36745;48.544;8.918;2022-12-22T06:34:35;11.30;;;2.17;;
50773;SDS011;36745;48.544;8.918;2022-12-22T06:37:54;11.38;;;1.92;;
50773;SDS011;36745;48.544;8.918;2022-12-22T06:41:14;10.30;;;2.72;;
50773;SDS011;36745;48.544;8.918;2022-12-22T06:44:53;8.73;;;2.80;;
50773;SDS011;36745;48.544;8.918;2022-12-22T06:48:13;11.35;;;2.55;;
50773;SDS011;36745;48.544;8.918;2022-12-22T06:51:37;12.50;;;2.55;;
50773;SDS011;36745;48.544;8.918;2022-12-22T06:54:56;10.68;;;2.95;;
50773;SDS011;36745;48.544;8.918;2022-12-22T06:58:16;33.05;;;15.38;;
50773;SDS011;36745;48.544;8.918;2022-12-22T07:01:36;11.88;;;2.92;;
50773;SDS011;36745;48.544;8.918;2022-12-22T07:04:56;9.40;;;1.83;;
50773;SDS011;36745;48.544;8.918;2022-12-22T07:08:16;11.93;;;2.75;;
50773;SDS011;36745;48.544;8.918;2022-12-22T07:11:35;10.30;;;2.10;;
50773;SDS011;36745;48.544;8.918;2022-12-22T07:14:55;11.85;;;2.40;;
50773;SDS011;36745;48.544;8.918;2022-12-22T07:18:15;11.55;;;2.45;;
50773;SDS011;36745;48.544;8.918;2022-12-22T07:21:35;10.27;;;3.17;;
50773;SDS011;36745;48.544;8.918;2022-12-22T07:24:54;10.43;;;2.50;;
50773;SDS011;36745;48.544;8.918;2022-12-22T07:28:14;10.40;;;2.20;;
50773;SDS011;36745;48.544;8.918;2022-12-22T07:31:34;11.98;;;2.42;;
50773;SDS011;36745;48.544;8.918;2022-12-22T07:34:54;14.23;;;5.10;;
50773;SDS011;36745;48.544;8.918;2022-12-22T07:38:14;12.75;;;2.40;;
50773;SDS011;36745;48.544;8.918;2022-12-22T07:41:33;16.88;;;3.60;;
50773;SDS011;36745;48.544;8.918;2022-12-22T07:45:16;16.95;;;3.88;;
50773;SDS011;36745;48.544;8.918;2022-12-22T07:48:37;15.80;;;5.10;;
50773;SDS011;36745;48.544;8.918;2022-12-22T07:52:15;10.50;;;4.22;;
50773;SDS011;36745;48.544;8.918;2022-12-22T07:55:44;13.88;;;4.45;;
50773;SDS011;36745;48.544;8.918;2022-12-22T07:59:10;14.35;;;4.97;;
50773;SDS011;36745;48.544;8.918;2022-12-22T08:02:29;17.10;;;6.05;;
50773;SDS011;36745;48.544;8.918;2022-12-22T08:05:49;21.73;;;7.65;;
50773;SDS011;36745;48.544;8.918;2022-12-22T08:09:12;17.52;;;4.00;;
50773;SDS011;36745;48.544;8.918;2022-12-22T08:12:34;12.85;;;2.95;;
50773;SDS011;36745;48.544;8.918;2022-12-22T08:15:54;12.73;;;2.47;;
50773;SDS011;36745;48.544;8.918;2022-12-22T08:19:14;11.57;;;3.33;;
50773;SDS011;36745;48.544;8.918;2022-12-22T08:22:34;22.80;;;4.40;;
50773;SDS011;36745;48.544;8.918;2022-12-22T08:26:05;25.52;;;8.45;;
50773;SDS011;36745;48.544;8.918;2022-12-22T08:29:36;19.35;;;5.60;;
50773;SDS011;36745;48.544;8.918;2022-12-22T08:33:00;98.32;;;36.63;;
50773;SDS011;36745;48.544;8.918;2022-12-22T08:36:20;79.50;;;34.47;;
50773;SDS011;36745;48.544;8.918;2022-12-22T08:39:40;37.47;;;14.32;;
50773;SDS011;36745;48.544;8.918;2022-12-22T08:43:03;17.90;;;4.97;;
50773;SDS011;36745;48.544;8.918;2022-12-22T08:46:27;30.33;;;10.90;;
50773;SDS011;36745;48.544;8.918;2022-12-22T08:49:47;69.22;;;28.83;;
50773;SDS011;36745;48.544;8.918;2022-12-22T08:53:08;13.23;;;4.55;;
50773;SDS011;36745;48.544;8.918;2022-12-22T08:56:28;10.38;;;2.95;;
50773;SDS011;36745;48.544;8.918;2022-12-22T08:59:49;13.38;;;6.07;;
50773;SDS011;36745;48.544;8.918;2022-12-22T09:03:09;9.45;;;2.25;;
50773;SDS011;36745;48.544;8.918;2022-12-22T09:06:29;7.15;;;1.90;;
50773;SDS011;36745;48.544;8.918;2022-12-22T09:09:50;9.35;;;2.65;;
50773;SDS011;36745;48.544;8.918;2022-12-22T09:13:13;14.30;;;5.90;;
50773;SDS011;36745;48.544;8.918;2022-12-22T09:16:33;13.45;;;3.80;;
50773;SDS011;36745;48.544;8.918;2022-12-22T09:19:53;9.57;;;2.15;;
50773;SDS011;36745;48.544;8.918;2022-12-22T09:23:13;12.75;;;2.70;;
50773;SDS011;36745;48.544;8.918;2022-12-22T09:26:32;12.13;;;3.92;;
50773;SDS011;36745;48.544;8.918;2022-12-22T09:29:52;6.80;;;2.47;;
50773;SDS011;36745;48.544;8.918;2022-12-22T09:33:12;14.65;;;2.53;;
50773;SDS011;36745;48.544;8.918;2022-12-22T09:36:32;10.40;;;2.15;;
50773;SDS011;36745;48.544;8.918;2022-12-22T09:39:52;10.50;;;2.47;;
50773;SDS011;36745;48.544;8.918;2022-12-22T09:43:13;9.93;;;2.30;;
50773;SDS011;36745;48.544;8.918;2022-12-22T09:46:35;9.13;;;1.92;;
50773;SDS011;36745;48.544;8.918;2022-12-22T09:49:56;13.00;;;2.65;;
50773;SDS011;36745;48.544;8.918;2022-12-22T09:53:19;8.40;;;2.38;;
50773;SDS011;36745;48.544;8.918;2022-12-22T09:56:41;9.57;;;2.08;;
50773;SDS011;36745;48.544;8.918;2022-12-22T10:00:09;10.40;;;1.83;;
50773;SDS011;36745;48.544;8.918;2022-12-22T10:03:44;13.65;;;2.33;;
50773;SDS011;36745;48.544;8.918;2022-12-22T10:07:23;8.18;;;2.10;;
50773;SDS011;36745;48.544;8.918;2022-12-22T10:10:53;9.85;;;2.35;;
50773;SDS011;36745;48.544;8.918;2022-12-22T10:14:14;12.32;;;2.65;;
50773;SDS011;36745;48.544;8.918;2022-12-22T10:17:34;12.25;;;2.08;;
50773;SDS011;36745;48.544;8.918;2022-12-22T10:24:45;11.15;;;2.17;;
50773;SDS011;36745;48.544;8.918;2022-12-22T10:28:06;9.60;;;2.42;;
50773;SDS011;36745;48.544;8.918;2022-12-22T10:35:21;10.10;;;2.30;;
50773;SDS011;36745;48.544;8.918;2022-12-22T10:38:55;10.65;;;2.33;;
50773;SDS011;36745;48.544;8.918;2022-12-22T10:42:23;13.27;;;2.00;;
50773;SDS011;36745;48.544;8.918;2022-12-22T10:45:46;12.20;;;2.75;;
50773;SDS011;36745;48.544;8.918;2022-12-22T10:49:14;10.75;;;2.45;;
50773;SDS011;36745;48.544;8.918;2022-12-22T10:52:37;7.53;;;2.10;;
50773;SDS011;36745;48.544;8.918;2022-12-22T10:56:04;7.95;;;1.65;;
50773;SDS011;36745;48.544;8.918;2022-12-22T10:59:24;7.63;;;2.50;;
50773;SDS011;36745;48.544;8.918;2022-12-22T11:02:44;9.57;;;2.00;;
50773;SDS011;36745;48.544;8.918;2022-12-22T11:06:11;7.53;;;1.65;;
50773;SDS011;36745;48.544;8.918;2022-12-22T11:09:31;10.85;;;2.25;;
50773;SDS011;36745;48.544;8.918;2022-12-22T11:20:27;9.18;;;2.30;;
50773;SDS011;36745;48.544;8.918;2022-12-22T11:24:09;7.72;;;2.03;;
50773;SDS011;36745;48.544;8.918;2022-12-22T11:27:55;7.63;;;1.50;;
50773;SDS011;36745;48.544;8.918;2022-12-22T11:31:39;7.75;;;1.50;;
50773;SDS011;36745;48.544;8.918;2022-12-22T11:35:18;8.60;;;1.58;;
50773;SDS011;36745;48.544;8.918;2022-12-22T11:49:40;13.88;;;3.95;;
50773;SDS011;36745;48.544;8.918;2022-12-22T11:53:39;8.82;;;2.42;;
50773;SDS011;36745;48.544;8.918;2022-12-22T12:00:53;8.15;;;1.65;;
50773;SDS011;36745;48.544;8.918;2022-12-22T12:08:32;4.88;;;1.05;;
50773;SDS011;36745;48.544;8.918;2022-12-22T12:11:58;7.18;;;1.30;;
50773;SDS011;36745;48.544;8.918;2022-12-22T12:15:37;9.88;;;2.38;;
50773;SDS011;36745;48.544;8.918;2022-12-22T12:19:09;8.77;;;2.28;;
50773;SDS011;36745;48.544;8.918;2022-12-22T12:29:49;7.55;;;1.90;;
50773;SDS011;36745;48.544;8.918;2022-12-22T12:33:43;8.70;;;1.80;;
50773;SDS011;36745;48.544;8.918;2022-12-22T12:44:09;11.63;;;2.10;;
50773;SDS011;36745;48.544;8.918;2022-12-22T12:47:33;9.65;;;1.80;;
50773;SDS011;36745;48.544;8.918;2022-12-22T12:50:54;14.75;;;2.70;;
50773;SDS011;36745;48.544;8.918;2022-12-22T12:54:32;9.20;;;2.33;;
50773;SDS011;36745;48.544;8.918;2022-12-22T12:57:59;11.88;;;2.70;;
50773;SDS011;36745;48.544;8.918;2022-12-22T13:08:26;11.45;;;2.60;;
50773;SDS011;36745;48.544;8.918;2022-12-22T13:18:47;12.18;;;1.92;;
50773;SDS011;36745;48.544;8.918;2022-12-22T13:22:07;14.57;;;3.13;;
50773;SDS011;36745;48.544;8.918;2022-12-22T13:25:49;18.63;;;2.67;;
50773;SDS011;36745;48.544;8.918;2022-12-22T13:29:16;13.82;;;2.95;;
50773;SDS011;36745;48.544;8.918;2022-12-22T13:32:57;13.05;;;2.72;;
50773;SDS011;36745;48.544;8.918;2022-12-22T13:36:23;7.07;;;1.50;;
50773;SDS011;36745;48.544;8.918;2022-12-22T13:43:26;11.02;;;2.00;;
50773;SDS011;36745;48.544;8.918;2022-12-22T13:46:49;6.60;;;2.22;;
50773;SDS011;36745;48.544;8.918;2022-12-22T13:53:40;9.40;;;2.78;;
50773;SDS011;36745;48.544;8.918;2022-12-22T13:57:03;11.65;;;2.83;;
50773;SDS011;36745;48.544;8.918;2022-12-22T14:00:31;9.00;;;2.20;;
50773;SDS011;36745;48.544;8.918;2022-12-22T14:03:53;20.25;;;6.40;;
50773;SDS011;36745;48.544;8.918;2022-12-22T14:07:17;17.17;;;3.47;;
50773;SDS011;36745;48.544;8.918;2022-12-22T14:10:40;16.55;;;4.68;;
50773;SDS011;36745;48.544;8.918;2022-12-22T14:14:36;11.75;;;3.25;;
50773;SDS011;36745;48.544;8.918;2022-12-22T14:17:50;23.05;;;6.35;;
50773;SDS011;36745;48.544;8.918;2022-12-22T14:21:09;13.18;;;3.92;;
50773;SDS011;36745;48.544;8.918;2022-12-22T14:24:31;15.40;;;3.22;;
50773;SDS011;36745;48.544;8.918;2022-12-22T14:27:55;15.70;;;3.20;;
50773;SDS011;36745;48.544;8.918;2022-12-22T14:31:16;13.77;;;3.30;;
50773;SDS011;36745;48.544;8.918;2022-12-22T14:34:36;21.77;;;3.60;;
50773;SDS011;36745;48.544;8.918;2022-12-22T14:38:11;14.05;;;3.22;;
50773;SDS011;36745;48.544;8.918;2022-12-22T14:41:39;16.23;;;3.92;;
50773;SDS011;36745;48.544;8.918;2022-12-22T14:45:13;15.52;;;3.75;;
50773;SDS011;36745;48.544;8.918;2022-12-22T14:48:38;14.57;;;3.15;;
50773;SDS011;36745;48.544;8.918;2022-12-22T14:52:06;16.10;;;3.58;;
50773;SDS011;36745;48.544;8.918;2022-12-22T14:59:08;18.48;;;5.10;;
50773;SDS011;36745;48.544;8.918;2022-12-22T15:02:39;23.65;;;5.68;;
50773;SDS011;36745;48.544;8.918;2022-12-22T15:09:46;25.10;;;7.28;;
50773;SDS011;36745;48.544;8.918;2022-12-22T15:13:09;27.45;;;7.60;;
50773;SDS011;36745;48.544;8.918;2022-12-22T15:16:53;29.15;;;7.63;;
50773;SDS011;36745;48.544;8.918;2022-12-22T15:20:17;30.50;;;8.85;;
50773;SDS011;36745;48.544;8.918;2022-12-22T15:23:38;27.75;;;8.05;;
50773;SDS011;36745;48.544;8.918;2022-12-22T15:26:58;18.63;;;5.30;;
50773;SDS011;36745;48.544;8.918;2022-12-22T15:30:19;18.20;;;4.75;;
50773;SDS011;36745;48.544;8.918;2022-12-22T15:33:40;10.32;;;3.08;;
50773;SDS011;36745;48.544;8.918;2022-12-22T15:37:00;19.40;;;3.58;;
50773;SDS011;36745;48.544;8.918;2022-12-22T15:40:21;25.95;;;8.30;;
50773;SDS011;36745;48.544;8.918;2022-12-22T15:43:41;87.78;;;31.60;;
50773;SDS011;36745;48.544;8.918;2022-12-22T15:47:01;162.10;;;66.88;;
50773;SDS011;36745;48.544;8.918;2022-12-22T15:50:26;26.90;;;8.90;;
50773;SDS011;36745;48.544;8.918;2022-12-22T15:53:54;31.10;;;11.05;;
50773;SDS011;36745;48.544;8.918;2022-12-22T15:57:16;23.83;;;7.72;;
50773;SDS011;36745;48.544;8.918;2022-12-22T16:00:36;23.67;;;8.77;;
50773;SDS011;36745;48.544;8.918;2022-12-22T16:03:56;22.60;;;7.13;;
50773;SDS011;36745;48.544;8.918;2022-12-22T16:07:16;18.42;;;4.65;;
50773;SDS011;36745;48.544;8.918;2022-12-22T16:10:35;21.27;;;5.60;;
50773;SDS011;36745;48.544;8.918;2022-12-22T16:13:55;19.10;;;4.32;;
50773;SDS011;36745;48.544;8.918;2022-12-22T16:17:19;19.50;;;4.55;;
50773;SDS011;36745;48.544;8.918;2022-12-22T16:20:43;28.60;;;7.80;;
50773;SDS011;36745;48.544;8.918;2022-12-22T16:24:03;23.48;;;5.95;;
50773;SDS011;36745;48.544;8.918;2022-12-22T16:27:25;23.95;;;5.57;;
50773;SDS011;36745;48.544;8.918;2022-12-22T16:30:45;27.95;;;8.25;;
50773;SDS011;36745;48.544;8.918;2022-12-22T16:34:07;26.23;;;7.15;;
50773;SDS011;36745;48.544;8.918;2022-12-22T16:40:49;24.25;;;9.10;;
50773;SDS011;36745;48.544;8.918;2022-12-22T16:44:11;32.47;;;8.82;;
50773;SDS011;36745;48.544;8.918;2022-12-22T16:47:38;25.92;;;9.13;;
50773;SDS011;36745;48.544;8.918;2022-12-22T16:50:58;27.02;;;9.38;;
50773;SDS011;36745;48.544;8.918;2022-12-22T16:54:18;27.15;;;11.85;;
50773;SDS011;36745;48.544;8.918;2022-12-22T16:57:38;36.35;;;13.02;;
50773;SDS011;36745;48.544;8.918;2022-12-22T17:00:58;32.10;;;14.00;;
50773;SDS011;36745;48.544;8.918;2022-12-22T17:07:47;46.45;;;20.48;;
50773;SDS011;36745;48.544;8.918;2022-12-22T17:11:13;48.70;;;19.30;;
50773;SDS011;36745;48.544;8.918;2022-12-22T17:14:38;38.63;;;15.65;;
50773;SDS011;36745;48.544;8.918;2022-12-22T17:17:58;32.03;;;11.80;;
50773;SDS011;36745;48.544;8.918;2022-12-22T17:21:18;35.03;;;10.95;;
50773;SDS011;36745;48.544;8.918;2022-12-22T17:24:39;33.28;;;11.30;;
50773;SDS011;36745;48.544;8.918;2022-12-22T17:28:00;41.33;;;11.13;;
50773;SDS011;36745;48.544;8.918;2022-12-22T17:31:22;37.83;;;10.73;;
50773;SDS011;36745;48.544;8.918;2022-12-22T17:34:42;30.17;;;10.32;;
50773;SDS011;36745;48.544;8.918;2022-12-22T17:38:01;29.45;;;8.63;;
50773;SDS011;36745;48.544;8.918;2022-12-22T17:41:21;24.83;;;7.22;;
50773;SDS011;36745;48.544;8.918;2022-12-22T17:44:41;31.95;;;7.13;;
50773;SDS011;36745;48.544;8.918;2022-12-22T17:48:01;31.30;;;9.60;;
50773;SDS011;36745;48.544;8.918;2022-12-22T17:51:22;31.98;;;8.68;;
50773;SDS011;36745;48.544;8.918;2022-12-22T17:54:45;21.98;;;6.00;;
50773;SDS011;36745;48.544;8.918;2022-12-22T17:58:08;27.75;;;6.57;;
50773;SDS011;36745;48.544;8.918;2022-12-22T18:01:32;21.85;;;6.10;;
50773;SDS011;36745;48.544;8.918;2022-12-22T18:04:52;29.95;;;6.68;;
50773;SDS011;36745;48.544;8.918;2022-12-22T18:08:12;23.48;;;5.95;;
50773;SDS011;36745;48.544;8.918;2022-12-22T18:11:37;24.83;;;6.10;;
50773;SDS011;36745;48.544;8.918;2022-12-22T18:14:57;24.70;;;7.80;;
50773;SDS011;36745;48.544;8.918;2022-12-22T18:18:17;35.15;;;9.05;;
50773;SDS011;36745;48.544;8.918;2022-12-22T18:21:37;24.55;;;8.18;;
50773;SDS011;36745;48.544;8.918;2022-12-22T18:24:57;28.90;;;8.27;;
50773;SDS011;36745;48.544;8.918;2022-12-22T18:28:17;39.00;;;10.15;;
50773;SDS011;36745;48.544;8.918;2022-12-22T18:31:36;38.17;;;10.77;;
50773;SDS011;36745;48.544;8.918;2022-12-22T18:34:56;36.35;;;11.68;;
50773;SDS011;36745;48.544;8.918;2022-12-22T18:38:21;43.65;;;12.02;;
50773;SDS011;36745;48.544;8.918;2022-12-22T18:41:44;36.08;;;11.20;;
50773;SDS011;36745;48.544;8.918;2022-12-22T18:45:04;38.17;;;10.82;;
50773;SDS011;36745;48.544;8.918;2022-12-22T18:48:25;36.85;;;11.40;;
50773;SDS011;36745;48.544;8.918;2022-12-22T18:51:44;34.75;;;11.98;;
50773;SDS011;36745;48.544;8.918;2022-12-22T18:55:04;31.05;;;9.90;;
50773;SDS011;36745;48.544;8.918;2022-12-22T18:58:25;28.95;;;11.00;;
50773;SDS011;36745;48.544;8.918;2022-12-22T19:01:44;34.20;;;13.60;;
50773;SDS011;36745;48.544;8.918;2022-12-22T19:05:12;58.72;;;18.83;;
50773;SDS011;36745;48.544;8.918;2022-12-22T19:08:36;61.50;;;18.95;;
50773;SDS011;36745;48.544;8.918;2022-12-22T19:11:56;26.05;;;8.65;;
50773;SDS011;36745;48.544;8.918;2022-12-22T19:15:20;23.98;;;7.55;;
50773;SDS011;36745;48.544;8.918;2022-12-22T19:18:44;29.73;;;10.60;;
50773;SDS011;36745;48.544;8.918;2022-12-22T19:22:04;35.95;;;15.77;;
50773;SDS011;36745;48.544;8.918;2022-12-22T19:25:27;27.38;;;12.30;;
50773;SDS011;36745;48.544;8.918;2022-12-22T19:28:50;28.45;;;12.98;;
50773;SDS011;36745;48.544;8.918;2022-12-22T19:32:28;24.60;;;7.43;;
50773;SDS011;36745;48.544;8.918;2022-12-22T19:35:49;22.92;;;6.35;;
50773;SDS011;36745;48.544;8.918;2022-12-22T19:39:09;20.65;;;4.45;;
50773;SDS011;36745;48.544;8.918;2022-12-22T19:42:29;21.77;;;4.85;;
50773;SDS011;36745;48.544;8.918;2022-12-22T19:45:49;24.52;;;5.82;;
50773;SDS011;36745;48.544;8.918;2022-12-22T19:49:14;21.63;;;5.40;;
50773;SDS011;36745;48.544;8.918;2022-12-22T19:52:36;19.00;;;4.90;;
50773;SDS011;36745;48.544;8.918;2022-12-22T19:55:56;20.35;;;6.40;;
50773;SDS011;36745;48.544;8.918;2022-12-22T20:02:59;18.20;;;5.25;;
50773;SDS011;36745;48.544;8.918;2022-12-22T20:06:19;18.08;;;6.18;;
50773;SDS011;36745;48.544;8.918;2022-12-22T20:09:39;19.80;;;5.55;;
50773;SDS011;36745;48.544;8.918;2022-12-22T20:13:00;23.98;;;7.63;;
50773;SDS011;36745;48.544;8.918;2022-12-22T20:16:22;60.20;;;26.03;;
50773;SDS011;36745;48.544;8.918;2022-12-22T20:19:41;39.55;;;14.88;;
50773;SDS011;36745;48.544;8.918;2022-12-22T20:23:10;25.20;;;12.93;;
50773;SDS011;36745;48.544;8.918;2022-12-22T20:26:35;22.30;;;7.20;;
50773;SDS011;36745;48.544;8.918;2022-12-22T20:29:54;23.35;;;6.03;;
50773;SDS011;36745;48.544;8.918;2022-12-22T20:33:16;16.50;;;4.07;;
50773;SDS011;36745;48.544;8.918;2022-12-22T20:36:37;14.55;;;3.33;;
50773;SDS011;36745;48.544;8.918;2022-12-22T20:39:57;15.63;;;3.80;;
50773;SDS011;36745;48.544;8.918;2022-12-22T20:43:18;13.75;;;3.50;;
50773;SDS011;36745;48.544;8.918;2022-12-22T20:46:39;11.90;;;2.85;;
50773;SDS011;36745;48.544;8.918;2022-12-22T20:49:59;13.45;;;3.45;;
50773;SDS011;36745;48.544;8.918;2022-12-22T20:53:19;10.68;;;3.40;;
50773;SDS011;36745;48.544;8.918;2022-12-22T20:56:39;15.35;;;6.20;;
50773;SDS011;36745;48.544;8.918;2022-12-22T20:59:58;12.65;;;4.30;;
50773;SDS011;36745;48.544;8.918;2022-12-22T21:03:18;15.43;;;4.60;;
50773;SDS011;36745;48.544;8.918;2022-12-22T21:06:38;11.82;;;4.10;;
50773;SDS011;36745;48.544;8.918;2022-12-22T21:10:04;15.75;;;7.00;;
50773;SDS011;36745;48.544;8.918;2022-12-22T21:13:24;17.83;;;7.72;;
50773;SDS011;36745;48.544;8.918;2022-12-22T21:16:44;17.65;;;5.70;;
50773;SDS011;36745;48.544;8.918;2022-12-22T21:20:04;18.42;;;5.72;;
50773;SDS011;36745;48.544;8.918;2022-12-22T21:23:24;16.70;;;4.22;;
50773;SDS011;36745;48.544;8.918;2022-12-22T21:26:44;11.18;;;4.25;;
50773;SDS011;36745;48.544;8.918;2022-12-22T21:30:13;15.70;;;5.65;;
50773;SDS011;36745;48.544;8.918;2022-12-22T21:33:34;14.10;;;5.68;;
50773;SDS011;36745;48.544;8.918;2022-12-22T21:36:56;17.85;;;4.43;;
50773;SDS011;36745;48.544;8.918;2022-12-22T21:40:23;14.70;;;5.32;;
50773;SDS011;36745;48.544;8.918;2022-12-22T21:43:45;18.00;;;5.13;;
50773;SDS011;36745;48.544;8.918;2022-12-22T21:47:05;14.85;;;4.40;;
50773;SDS011;36745;48.544;8.918;2022-12-22T21:50:31;17.60;;;4.80;;
50773;SDS011;36745;48.544;8.918;2022-12-22T21:53:52;15.20;;;4.10;;
50773;SDS011;36745;48.544;8.918;2022-12-22T21:57:13;14.68;;;4.38;;
50773;SDS011;36745;48.544;8.918;2022-12-22T22:00:34;15.43;;;5.25;;
50773;SDS011;36745;48.544;8.918;2022-12-22T22:03:57;16.10;;;5.82;;
50773;SDS011;36745;48.544;8.918;2022-12-22T22:07:16;12.15;;;3.42;;